Time;durP1;ratioP1;P1;durP2;ratioP2;P2;SDS_P1;SDS_P2;PMS_P1;PMS_P2;Temp;Humidity;BMP_temperature;BMP_pressure;BME280_temperature;BME280_humidity;BME280_pressure;Samples;Min_cycle;Max_cycle;Signal;HPM_P1;HPM_P2
2022/08/10 00:01:09;;;;;;;4.13;3.73;;;;;;;29.44;60.96;100535.06;5066474;28;65803;-39
2022/08/10 00:03:41;;;;;;;4.75;4.22;;;;;;;29.43;63.75;100522.63;5071154;28;70406;-39
2022/08/10 00:06:13;;;;;;;9.13;4.80;;;;;;;29.57;63.00;100524.19;5070115;27;65509;-39
2022/08/10 00:08:44;;;;;;;5.47;4.97;;;;;;;29.65;65.80;100526.63;5076568;28;70188;-40
2022/08/10 00:11:16;;;;;;;12.13;5.43;;;;;;;29.71;66.43;100531.16;5070495;27;66702;-39
2022/08/10 00:13:47;;;;;;;13.50;5.15;;;;;;;29.81;64.23;100539.59;5064699;28;70149;-39
2022/08/10 00:16:19;;;;;;;16.13;5.15;;;;;;;29.76;67.74;100539.44;5059569;28;66262;-38
2022/08/10 00:18:50;;;;;;;7.63;6.13;;;;;;;29.83;68.82;100545.59;5058214;28;69659;-38
2022/08/10 00:21:22;;;;;;;8.50;5.68;;;;;;;29.88;68.60;100561.16;5063578;28;65791;-38
2022/08/10 00:23:56;;;;;;;16.33;5.55;;;;;;;29.88;70.31;100563.06;5053522;28;69620;-38
2022/08/10 00:26:27;;;;;;;14.00;5.10;;;;;;;30.01;66.42;100560.25;5057926;28;65385;-39
2022/08/10 00:29:18;;;;;;;19.60;5.18;;;;;;;30.00;65.37;100551.28;5053566;28;70592;-40
2022/08/10 00:31:50;;;;;;;21.70;5.20;;;;;;;30.15;65.15;100569.06;5056134;28;66207;-40
2022/08/10 00:34:29;;;;;;;20.92;5.25;;;;;;;30.05;68.44;100535.22;5061382;28;69459;-39
2022/08/10 00:37:01;;;;;;;10.70;4.65;;;;;;;30.30;66.58;100566.00;5057897;28;65728;-41
2022/08/10 00:39:33;;;;;;;10.27;4.53;;;;;;;30.38;66.48;100563.03;5074765;28;69909;-38
2022/08/10 00:42:10;;;;;;;8.25;4.70;;;;;;;30.23;65.27;100520.09;5052930;28;66205;-40
2022/08/10 00:44:48;;;;;;;12.23;4.40;;;;;;;30.31;66.90;100535.19;5058375;28;69944;-39
2022/08/10 00:47:20;;;;;;;6.15;4.45;;;;;;;30.45;65.83;100544.81;5056400;28;66540;-40
2022/08/10 00:50:08;;;;;;;13.10;4.22;;;;;;;30.61;65.49;100568.56;5055013;28;69899;-41
2022/08/10 00:52:40;;;;;;;6.15;4.10;;;;;;;30.64;64.74;100560.00;5056718;28;65781;-42
2022/08/10 00:55:11;;;;;;;7.22;4.03;;;;;;;30.66;64.72;100557.91;5063677;28;69578;-41
2022/08/10 00:57:43;;;;;;;4.90;4.28;;;;;;;30.70;65.19;100567.25;5064875;27;65696;-41
2022/08/10 01:00:24;;;;;;;9.07;4.75;;;;;;;30.62;64.91;100537.75;5060929;28;70010;-41
2022/08/10 01:02:57;;;;;;;5.10;4.22;;;;;;;30.78;64.95;100565.25;5067028;28;66813;-41
2022/08/10 01:05:29;;;;;;;4.10;3.60;;;;;;;30.72;65.13;100546.16;5057810;28;70684;-41
2022/08/10 01:08:22;;;;;;;5.95;3.67;;;;;;;30.80;66.21;100566.72;5067416;28;66655;-40
2022/08/10 01:11:17;;;;;;;6.78;4.03;;;;;;;30.46;66.79;100519.41;5075831;28;70504;-40
2022/08/10 01:14:23;;;;;;;4.22;3.63;;;;;;;30.80;66.43;100555.06;5035180;28;66223;-40
2022/08/10 01:17:10;;;;;;;4.10;3.70;;;;;;;30.48;66.30;100503.78;5051808;28;70900;-42
2022/08/10 01:19:56;;;;;;;4.43;3.67;;;;;;;30.95;65.71;100571.72;5053908;28;65731;-41
2022/08/10 01:23:02;;;;;;;6.50;3.25;;;;;;;30.92;66.07;100574.91;5059627;28;69512;-40
2022/08/10 01:25:55;;;;;;;3.67;3.20;;;;;;;30.96;66.10;100581.53;5040500;28;66429;-40
2022/08/10 01:29:00;;;;;;;6.47;3.75;;;;;;;30.99;65.39;100581.06;5054948;28;70080;-49
2022/08/10 01:31:40;;;;;;;8.75;3.17;;;;;;;30.55;65.24;100509.09;5051167;28;66075;-39
2022/08/10 01:34:22;;;;;;;3.67;3.15;;;;;;;31.04;65.76;100588.53;5071174;28;70725;-41
2022/08/10 01:37:06;;;;;;;7.05;3.35;;;;;;;30.66;65.41;100533.53;5043773;28;66176;-40
2022/08/10 01:39:41;;;;;;;4.88;3.33;;;;;;;31.08;64.95;100601.38;5050950;28;70462;-40
2022/08/10 01:42:17;;;;;;;4.50;2.75;;;;;;;30.78;64.68;100535.47;5073342;28;66518;-40
2022/08/10 01:45:03;;;;;;;3.40;3.10;;;;;;;31.05;65.65;100580.16;5076419;28;70288;-40
2022/08/10 01:50:35;;;;;;;5.78;2.85;;;;;;;31.16;65.62;100584.78;5058630;27;70385;-41
2022/08/10 01:53:39;;;;;;;2.55;2.35;;;;;;;30.56;65.06;100487.22;5071730;28;65546;-40
2022/08/10 01:56:15;;;;;;;6.65;3.00;;;;;;;30.81;64.42;100522.31;5077186;28;70022;-40
2022/08/10 01:58:56;;;;;;;4.82;2.97;;;;;;;30.86;64.52;100521.66;5075100;28;66776;-40
2022/08/10 02:01:37;;;;;;;5.40;2.75;;;;;;;31.25;64.79;100590.72;5073298;27;70437;-40
2022/08/10 02:04:12;;;;;;;3.47;3.08;;;;;;;31.27;64.60;100588.59;5077320;28;66954;-41
2022/08/10 02:06:47;;;;;;;3.13;2.45;;;;;;;30.96;64.28;100532.78;5073593;28;70808;-41
2022/08/10 02:09:28;;;;;;;6.03;3.25;;;;;;;31.28;65.08;100584.84;5076620;28;65997;-41
2022/08/10 02:12:04;;;;;;;7.03;2.87;;;;;;;31.34;64.55;100596.63;5053732;28;69179;-40
2022/08/10 02:14:46;;;;;;;5.65;2.50;;;;;;;31.35;64.46;100607.25;5073952;27;66142;-40
2022/08/10 02:17:24;;;;;;;5.45;2.70;;;;;;;31.40;63.92;100603.91;5074685;27;69280;-40
2022/08/10 02:20:19;;;;;;;3.90;2.85;;;;;;;31.03;64.00;100544.31;5048863;28;65064;-40
2022/08/10 02:23:04;;;;;;;3.85;2.53;;;;;;;31.38;64.35;100606.00;5072603;28;69834;-40
2022/08/10 02:25:37;;;;;;;3.20;2.90;;;;;;;31.00;63.85;100522.28;5074043;27;66419;-40
2022/08/10 02:28:16;;;;;;;4.32;3.08;;;;;;;31.06;63.65;100533.03;5053629;28;70395;-40
2022/08/10 02:31:16;;;;;;;4.85;2.30;;;;;;;31.41;64.36;100607.44;5070702;28;65887;-40
2022/08/10 02:33:55;;;;;;;3.92;2.25;;;;;;;31.50;63.84;100597.91;5071242;28;70320;-40
2022/08/10 02:36:33;;;;;;;4.15;2.72;;;;;;;31.42;63.39;100590.91;5057118;28;66993;-41
2022/08/10 02:39:06;;;;;;;5.78;2.20;;;;;;;31.54;63.61;100589.09;5058693;28;70631;-41
2022/08/10 02:41:42;;;;;;;3.08;2.78;;;;;;;31.55;63.60;100606.19;5070436;28;66186;-40
2022/08/10 02:45:00;;;;;;;2.90;2.40;;;;;;;31.51;63.89;100594.97;5057562;28;69538;-41
2022/08/10 02:48:07;;;;;;;2.63;2.40;;;;;;;31.58;63.72;100589.44;5060515;28;66284;-41
2022/08/10 02:50:41;;;;;;;3.42;2.25;;;;;;;31.55;63.25;100581.78;5074164;28;70693;-40
2022/08/10 02:53:27;;;;;;;4.90;2.35;;;;;;;31.25;63.43;100541.94;5062592;28;65631;-41
2022/08/10 02:56:22;;;;;;;4.40;2.72;;;;;;;31.64;63.36;100590.41;5050615;28;69836;-41
2022/08/10 02:59:05;;;;;;;5.40;2.42;;;;;;;31.29;62.88;100545.84;5047024;28;66949;-40
2022/08/10 03:01:42;;;;;;;3.22;2.60;;;;;;;31.66;62.82;100582.88;5059630;28;70482;-41
2022/08/10 03:04:21;;;;;;;5.43;2.40;;;;;;;30.97;63.06;100471.31;5057173;28;66273;-41
2022/08/10 03:07:17;;;;;;;4.50;2.13;;;;;;;31.73;62.78;100597.13;5049634;28;69759;-40
2022/08/10 03:10:12;;;;;;;4.28;2.53;;;;;;;31.35;62.25;100519.72;5056015;28;65884;-40
2022/08/10 03:12:49;;;;;;;5.95;2.75;;;;;;;31.45;62.74;100530.81;5058682;28;69653;-41
2022/08/10 03:15:21;;;;;;;4.43;2.40;;;;;;;31.77;62.63;100582.06;5056144;28;66474;-41
2022/08/10 03:17:53;;;;;;;;;;;;;;;31.43;63.78;100570.91;5059278;28;70301;-41
2022/08/10 03:20:40;;;;;;;5.93;2.28;;;;;;;31.64;62.52;100555.16;5049494;28;66817;-39
2022/08/10 03:23:17;;;;;;;3.78;2.47;;;;;;;31.80;62.14;100565.31;5059384;28;70472;-42
2022/08/10 03:25:52;;;;;;;3.65;2.70;;;;;;;31.64;62.28;100523.44;5056563;28;65464;-40
2022/08/10 03:28:26;;;;;;;6.72;2.58;;;;;;;31.37;61.87;100485.94;5058497;28;70503;-40
2022/08/10 03:31:01;;;;;;;3.42;2.45;;;;;;;31.49;62.10;100496.78;5058485;28;66268;-41
2022/08/10 03:33:36;;;;;;;3.35;2.40;;;;;;;31.81;61.62;100554.22;5058054;28;70151;-40
2022/08/10 03:36:08;;;;;;;3.38;2.15;;;;;;;31.89;61.58;100561.19;5058446;28;66489;-40
2022/08/10 03:38:59;;;;;;;9.13;2.25;;;;;;;31.85;61.81;100551.88;5057403;28;69973;-40
2022/08/10 03:41:59;;;;;;;7.38;2.05;;;;;;;31.72;62.03;100541.25;5057627;28;66141;-40
2022/08/10 03:44:33;;;;;;;3.00;2.03;;;;;;;31.96;61.31;100559.22;5058159;28;69151;-40
2022/08/10 03:47:06;;;;;;;6.57;2.30;;;;;;;31.79;61.31;100531.13;5057267;28;65778;-39
2022/08/10 03:49:47;;;;;;;7.50;2.83;;;;;;;31.50;61.23;100473.22;5057982;28;70000;-42
2022/08/10 03:52:20;;;;;;;4.35;1.67;;;;;;;31.72;61.30;100504.09;5058002;28;66741;-40
2022/08/10 03:54:52;;;;;;;3.60;2.42;;;;;;;31.97;61.59;100539.16;5056994;28;69999;-42
2022/08/10 03:57:25;;;;;;;;;;;;;;;31.66;62.31;100536.75;5055217;28;66227;-41
2022/08/10 03:59:57;;;;;;;4.97;2.22;;;;;;;31.99;61.53;100537.06;5070955;27;69855;-40
2022/08/10 04:02:29;;;;;;;4.45;2.33;;;;;;;31.98;61.25;100529.13;5072872;28;65502;-41
2022/08/10 04:05:20;;;;;;;;;;;;;;;31.68;61.81;100534.63;5070351;28;69882;-40
2022/08/10 04:07:51;;;;;;;5.50;2.10;;;;;;;32.00;61.19;100524.31;5070228;28;66168;-40
2022/08/10 04:10:22;;;;;;;8.73;2.50;;;;;;;32.05;61.45;100529.84;5051533;28;70345;-39
2022/08/10 04:12:55;;;;;;;3.67;2.30;;;;;;;32.03;61.10;100521.13;5071052;27;65924;-41
2022/08/10 04:15:28;;;;;;;3.55;2.28;;;;;;;32.08;61.11;100518.53;5073302;28;69984;-40
2022/08/10 04:18:00;;;;;;;6.28;2.30;;;;;;;32.08;61.04;100507.66;5071580;27;66354;-40
2022/08/10 04:20:48;;;;;;;3.88;2.15;;;;;;;32.09;61.28;100525.59;5061379;28;70091;-42
2022/08/10 04:23:23;;;;;;;4.85;2.13;;;;;;;31.95;61.13;100476.16;5051954;28;65734;-41
2022/08/10 04:25:55;;;;;;;6.07;2.55;;;;;;;32.17;61.13;100522.50;5072437;28;70269;-42
2022/08/10 04:28:27;;;;;;;2.58;1.83;;;;;;;32.20;61.15;100521.22;5075056;28;66818;-42
2022/08/10 04:31:00;;;;;;;3.72;2.35;;;;;;;32.12;61.49;100494.44;5058391;28;69707;-42
2022/08/10 04:33:33;;;;;;;7.80;2.30;;;;;;;32.22;61.27;100503.63;5073737;28;66579;-40
2022/08/10 04:36:05;;;;;;;5.97;2.28;;;;;;;32.24;61.09;100497.97;5055313;28;69489;-41
2022/08/10 04:38:37;;;;;;;3.85;2.30;;;;;;;32.23;61.27;100497.16;5054454;28;65714;-42
2022/08/10 04:41:09;;;;;;;2.75;1.98;;;;;;;32.27;61.34;100494.78;5045782;28;69656;-41
2022/08/10 04:43:40;;;;;;;5.07;2.50;;;;;;;32.26;61.49;100487.69;5070803;28;66359;-42
2022/08/10 04:46:12;;;;;;;5.38;2.60;;;;;;;32.27;61.17;100494.78;5074968;27;69940;-40
2022/08/10 04:49:03;;;;;;;10.75;2.63;;;;;;;32.04;61.33;100442.22;5057587;28;66802;-39
2022/08/10 04:51:55;;;;;;;4.45;3.13;;;;;;;32.08;61.52;100436.31;5057762;28;70361;-40
2022/08/10 04:54:26;;;;;;;5.43;3.07;;;;;;;32.31;61.40;100468.81;5058119;28;65337;-39
2022/08/10 04:56:59;;;;;;;4.55;2.83;;;;;;;32.35;61.17;100470.00;5056978;28;70224;-42
2022/08/10 04:59:30;;;;;;;3.97;2.88;;;;;;;32.27;61.53;100448.66;5057179;28;66257;-40
2022/08/10 05:02:02;;;;;;;5.18;2.80;;;;;;;32.35;61.48;100463.75;5055059;28;69658;-39
2022/08/10 05:04:53;;;;;;;4.97;2.47;;;;;;;32.35;61.32;100455.59;5056579;28;65726;-40
2022/08/10 05:07:25;;;;;;;8.98;2.72;;;;;;;32.36;61.40;100447.19;5053835;28;69418;-41
2022/08/10 05:09:56;;;;;;;8.93;2.60;;;;;;;32.32;61.53;100435.19;5057692;28;65073;-41
2022/08/10 05:12:36;;;;;;;4.32;2.78;;;;;;;32.39;61.34;100433.13;5056111;28;69278;-39
2022/08/10 05:15:11;;;;;;;6.30;3.20;;;;;;;32.42;61.13;100427.22;5052033;28;66096;-41
2022/08/10 05:17:43;;;;;;;6.32;2.90;;;;;;;32.44;61.43;100432.44;5072307;28;71326;-40
2022/08/10 05:20:35;;;;;;;9.25;3.45;;;;;;;32.31;61.16;100419.94;5061273;28;66439;-41
2022/08/10 05:23:06;;;;;;;5.45;3.05;;;;;;;32.34;61.35;100424.88;5072941;28;70014;-42
2022/08/10 05:25:38;;;;;;;7.07;3.30;;;;;;;32.47;61.31;100427.34;5068821;28;66560;-41
2022/08/10 05:28:10;;;;;;;5.20;3.45;;;;;;;32.49;61.24;100427.94;5072614;27;70190;-40
2022/08/10 05:30:41;;;;;;;5.63;3.53;;;;;;;32.51;61.18;100426.88;5067194;27;65173;-41
2022/08/10 05:33:13;;;;;;;6.47;4.05;;;;;;;32.50;61.06;100423.34;5063990;28;71477;-41
2022/08/10 05:35:45;;;;;;;8.32;3.72;;;;;;;32.54;61.07;100429.09;5073435;28;65511;-40
2022/08/10 05:38:28;;;;;;;10.05;3.97;;;;;;;32.56;61.00;100413.41;5072556;27;70307;-39
2022/08/10 05:41:01;;;;;;;3.20;2.88;;;;;;;32.60;61.00;100401.81;5073830;28;65543;-42
2022/08/10 05:43:33;;;;;;;6.60;3.42;;;;;;;32.61;60.78;100403.44;5072677;27;70554;-41
2022/08/10 05:46:04;;;;;;;;;;;;;;;32.29;61.79;100411.25;5063615;28;67360;-41
2022/08/10 05:48:49;;;;;;;6.88;3.45;;;;;;;32.61;61.06;100395.31;5075443;27;69088;-42
2022/08/10 05:51:30;;;;;;;4.00;3.33;;;;;;;32.64;60.72;100397.53;5077460;28;66386;-42
2022/08/10 05:54:01;;;;;;;5.88;3.40;;;;;;;32.66;60.83;100395.41;5078509;28;70937;-40
2022/08/10 05:56:38;;;;;;;5.25;3.40;;;;;;;32.70;60.51;100395.72;5072481;27;66437;-40
2022/08/10 05:59:30;;;;;;;6.82;2.72;;;;;;;32.55;60.82;100354.75;5078167;27;69864;-40
2022/08/10 06:02:30;;;;;;;3.92;3.28;;;;;;;32.69;60.93;100372.38;5057643;28;65858;-39
2022/08/10 06:05:22;;;;;;;4.50;3.50;;;;;;;32.27;60.75;100304.81;5075401;28;69422;-51
2022/08/10 06:07:59;;;;;;;6.68;3.55;;;;;;;32.75;60.37;100360.53;5076561;28;66281;-40
2022/08/10 06:10:35;;;;;;;4.75;3.42;;;;;;;32.40;60.37;100293.66;5076467;28;69586;-40
2022/08/10 06:16:33;;;;;;;4.13;3.03;;;;;;;32.83;60.56;100351.97;5057906;28;70206;-41
2022/08/10 06:19:06;;;;;;;6.60;3.20;;;;;;;32.86;60.41;100356.91;5048496;28;66405;-40
2022/08/10 06:21:39;;;;;;;3.17;2.30;;;;;;;32.86;60.20;100339.78;5066149;28;70140;-41
2022/08/10 06:24:35;;;;;;;6.60;3.50;;;;;;;32.46;60.15;100265.56;5061894;27;66288;-40
2022/08/10 06:27:25;;;;;;;4.65;2.95;;;;;;;32.97;60.45;100343.50;5061556;28;69415;-42
2022/08/10 06:30:04;;;;;;;10.52;3.65;;;;;;;32.96;60.14;100339.13;5078136;28;66332;-40
2022/08/10 06:32:51;;;;;;;4.05;2.85;;;;;;;32.91;60.09;100332.53;5064946;28;69493;-40
2022/08/10 06:35:27;;;;;;;4.60;2.80;;;;;;;32.98;60.30;100336.97;5063711;28;67008;-42
2022/08/10 06:38:03;;;;;;;4.95;3.00;;;;;;;32.68;59.64;100275.66;5056690;28;69441;-40
2022/08/10 06:40:42;;;;;;;5.95;2.78;;;;;;;33.07;59.76;100339.09;5071466;28;65727;-40
2022/08/10 06:43:18;;;;;;;8.70;3.13;;;;;;;33.11;59.90;100342.13;5059953;28;70138;-41
2022/08/10 06:45:53;;;;;;;3.75;3.00;;;;;;;33.15;59.36;100332.38;5062719;28;65562;-40
2022/08/10 06:48:59;;;;;;;4.45;3.03;;;;;;;33.05;59.74;100337.69;5062703;28;70672;-41
2022/08/10 06:51:34;;;;;;;6.05;3.25;;;;;;;33.13;59.46;100329.09;5059444;28;66007;-40
2022/08/10 06:54:11;;;;;;;6.18;3.42;;;;;;;32.93;59.60;100286.09;5059636;28;69632;-40
2022/08/10 06:56:45;;;;;;;9.23;3.47;;;;;;;33.23;59.52;100323.81;5069195;28;68031;-40
2022/08/10 06:59:41;;;;;;;9.60;3.40;;;;;;;33.08;59.63;100288.25;5070259;27;70187;-41
2022/08/10 07:02:26;;;;;;;4.78;3.67;;;;;;;32.93;59.36;100264.34;5071209;28;65412;-40
2022/08/10 07:05:11;;;;;;;5.82;3.72;;;;;;;33.25;58.90;100316.22;5071636;27;70423;-39
2022/08/10 07:07:45;;;;;;;5.95;3.72;;;;;;;32.93;59.24;100251.63;5074397;28;65837;-40
2022/08/10 07:10:20;;;;;;;4.90;3.38;;;;;;;33.02;59.53;100262.09;5069760;28;69154;-46
2022/08/10 07:12:57;;;;;;;6.80;3.10;;;;;;;33.02;59.05;100253.94;5061410;28;66586;-40
2022/08/10 07:15:29;;;;;;;4.97;3.30;;;;;;;33.38;59.03;100310.44;5055958;28;70398;-41
2022/08/10 07:18:21;;;;;;;4.30;2.95;;;;;;;33.38;59.12;100304.19;5064152;28;66548;-41
2022/08/10 07:20:56;;;;;;;6.68;3.40;;;;;;;33.29;59.02;100287.50;5059273;28;70870;-40
2022/08/10 07:23:29;;;;;;;7.10;3.08;;;;;;;33.32;58.74;100281.56;5054640;28;65953;-39
2022/08/10 07:26:23;;;;;;;6.97;3.30;;;;;;;33.42;59.33;100299.88;5058916;28;70263;-41
2022/08/10 07:28:56;;;;;;;7.05;3.28;;;;;;;33.46;58.93;100300.19;5057702;28;66153;-41
2022/08/10 07:31:29;;;;;;;10.30;3.60;;;;;;;33.48;59.25;100298.03;5058037;28;70304;-40
2022/08/10 07:34:22;;;;;;;5.78;2.67;;;;;;;33.07;58.88;100233.09;5057669;28;66551;-41
2022/08/10 07:37:04;;;;;;;5.97;3.20;;;;;;;33.38;58.62;100287.88;5058403;28;70456;-41
2022/08/10 07:39:42;;;;;;;11.25;3.25;;;;;;;33.09;58.89;100230.94;5046403;28;66962;-42
2022/08/10 07:42:33;;;;;;;6.30;2.90;;;;;;;33.20;58.55;100242.78;5067446;28;69254;-40
2022/08/10 07:45:05;;;;;;;5.80;3.05;;;;;;;33.55;58.75;100298.72;5058026;28;66358;-41
2022/08/10 07:47:54;;;;;;;6.78;3.33;;;;;;;33.53;58.73;100300.88;5045728;28;70468;-41
2022/08/10 07:50:28;;;;;;;4.90;3.60;;;;;;;33.55;58.86;100309.59;5058450;28;66388;-41
2022/08/10 07:53:07;;;;;;;6.10;3.33;;;;;;;33.55;58.62;100306.88;5058230;28;69203;-40
2022/08/10 07:55:46;;;;;;;11.10;4.03;;;;;;;33.23;58.57;100255.03;5043693;28;66056;-40
2022/08/10 07:58:49;;;;;;;4.68;3.63;;;;;;;33.52;58.80;100288.31;5054745;28;69884;-40
2022/08/10 08:01:31;;;;;;;8.38;3.92;;;;;;;33.01;58.86;100193.31;5058726;28;65708;-40
2022/08/10 08:04:05;;;;;;;7.15;4.13;;;;;;;33.60;58.40;100285.19;5055223;28;69675;-42
2022/08/10 08:06:43;;;;;;;5.00;4.13;;;;;;;33.63;58.57;100284.69;5056304;28;66403;-42
2022/08/10 08:09:15;;;;;;;6.35;3.83;;;;;;;33.53;58.90;100279.13;5056693;28;70263;-40
2022/08/10 08:11:48;;;;;;;5.18;4.32;;;;;;;33.68;58.36;100289.34;5057452;28;65670;-40
2022/08/10 08:14:22;;;;;;;6.75;3.50;;;;;;;33.30;58.29;100232.03;5056994;28;69575;-40
2022/08/10 08:16:55;;;;;;;5.05;3.90;;;;;;;33.66;58.36;100281.47;5055998;28;65666;-40
2022/08/10 08:19:28;;;;;;;9.90;4.40;;;;;;;33.70;58.18;100279.88;5052101;28;69394;-41
2022/08/10 08:22:10;;;;;;;4.93;4.00;;;;;;;33.73;58.28;100273.91;5055892;28;66265;-40
2022/08/10 08:25:03;;;;;;;4.70;3.55;;;;;;;33.72;57.80;100283.16;5050192;28;69686;-41
2022/08/10 08:27:43;;;;;;;3.97;3.58;;;;;;;33.44;57.73;100232.50;5058669;28;66131;-40
2022/08/10 08:30:20;;;;;;;9.20;3.90;;;;;;;33.71;58.05;100270.66;5058714;28;70467;-41
2022/08/10 08:32:58;;;;;;;7.93;3.72;;;;;;;33.71;58.10;100262.50;5062629;28;65687;-40
2022/08/10 08:35:31;;;;;;;7.47;3.67;;;;;;;33.64;58.02;100264.56;5073357;27;69580;-40
2022/08/10 08:38:04;;;;;;;5.05;3.53;;;;;;;33.31;58.08;100202.97;5076279;28;66446;-40
2022/08/10 08:41:14;;;;;;;5.07;3.63;;;;;;;33.65;57.95;100266.19;5062467;28;70523;-40
2022/08/10 08:43:57;;;;;;;6.40;3.38;;;;;;;33.65;57.97;100258.03;5073967;28;66084;-40
2022/08/10 08:47:00;;;;;;;6.25;4.28;;;;;;;33.50;58.37;100266.81;5074739;28;69523;-41
2022/08/10 08:50:06;;;;;;;9.43;4.03;;;;;;;33.65;58.33;100268.91;5061306;28;65660;-40
2022/08/10 08:52:39;;;;;;;9.30;4.53;;;;;;;33.63;58.32;100262.94;5054425;28;70359;-42
2022/08/10 08:55:34;;;;;;;9.38;4.65;;;;;;;33.22;58.46;100199.88;5059532;28;66060;-40
2022/08/10 08:58:28;;;;;;;5.90;5.25;;;;;;;33.63;58.39;100271.09;5056882;28;70445;-40
2022/08/10 09:01:23;;;;;;;11.13;5.50;;;;;;;33.55;58.56;100272.34;5057932;28;65612;-41
2022/08/10 09:04:24;;;;;;;7.07;6.38;;;;;;;33.60;58.66;100271.59;5048631;28;70327;-40
2022/08/10 09:07:07;;;;;;;10.60;7.30;;;;;;;33.58;58.83;100276.47;5055897;28;66695;-40
2022/08/10 09:10:26;;;;;;;13.15;7.35;;;;;;;33.57;59.07;100281.09;5059728;28;70163;-41
2022/08/10 09:13:30;;;;;;;8.35;7.28;;;;;;;33.58;59.08;100292.78;5070262;28;66175;-42
2022/08/10 09:16:35;;;;;;;9.82;7.88;;;;;;;33.51;59.01;100294.81;5067628;28;69545;-40
2022/08/10 09:19:33;;;;;;;12.98;8.30;;;;;;;33.54;59.37;100286.19;5054266;28;65536;-41
2022/08/10 09:22:31;;;;;;;12.15;8.45;;;;;;;33.13;59.18;100214.97;5057139;27;70178;-40
2022/08/10 09:25:19;;;;;;;13.02;8.57;;;;;;;33.56;59.44;100294.91;5076086;28;66121;-42
2022/08/10 09:28:00;;;;;;;15.73;8.35;;;;;;;33.55;59.13;100304.97;5071362;28;70469;-42
2022/08/10 09:30:41;;;;;;;10.85;8.40;;;;;;;33.16;59.42;100241.63;5069457;27;65735;-41
2022/08/10 09:33:48;;;;;;;14.38;8.20;;;;;;;33.53;59.67;100311.75;5063502;28;70178;-40
2022/08/10 09:36:46;;;;;;;10.00;7.95;;;;;;;33.25;59.50;100261.06;5062416;28;66686;-40
2022/08/10 09:39:42;;;;;;;9.88;8.45;;;;;;;33.35;59.69;100289.19;5075640;28;71340;-40
2022/08/10 09:43:04;;;;;;;8.32;7.55;;;;;;;33.37;60.17;100314.22;5074353;28;66397;-41
2022/08/10 09:45:55;;;;;;;12.27;8.75;;;;;;;33.53;59.73;100322.63;5076444;28;69085;-41
2022/08/10 09:48:32;;;;;;;;;;;;;;;33.22;60.78;100321.34;5077091;28;66376;-41
2022/08/10 09:51:28;;;;;;;11.00;7.93;;;;;;;33.28;60.01;100302.13;5066806;28;70249;-40
2022/08/10 09:54:34;;;;;;;15.00;8.30;;;;;;;33.52;59.98;100326.41;5070174;27;66257;-42
2022/08/10 09:57:06;;;;;;;14.38;8.48;;;;;;;33.52;59.93;100329.13;5074013;28;68675;-41
2022/08/10 10:00:11;;;;;;;9.15;8.32;;;;;;;33.04;60.29;100270.81;5063843;27;65857;-40
2022/08/10 10:02:47;;;;;;;8.73;7.78;;;;;;;33.52;60.16;100334.56;5061122;28;69501;-40
2022/08/10 10:05:48;;;;;;;15.77;8.18;;;;;;;33.40;60.65;100342.78;5064338;28;66780;-40
2022/08/10 10:08:37;;;;;;;11.27;8.35;;;;;;;33.44;60.32;100345.88;5074002;28;70241;-40
2022/08/10 10:11:40;;;;;;;17.65;8.43;;;;;;;33.17;60.28;100303.06;5072621;27;65273;-40
2022/08/10 10:14:34;;;;;;;10.85;7.78;;;;;;;33.19;60.58;100314.50;5062448;28;70148;-42
2022/08/10 10:17:20;;;;;;;10.52;8.05;;;;;;;33.33;60.43;100340.28;5062875;28;66294;-40
2022/08/10 10:20:07;;;;;;;12.63;7.55;;;;;;;33.20;61.43;100329.75;5047142;28;69614;-39
2022/08/10 10:22:52;;;;;;;12.13;7.63;;;;;;;33.31;61.56;100364.16;5048564;28;66537;-39
2022/08/10 10:25:46;;;;;;;9.35;7.07;;;;;;;33.33;61.78;100366.63;5061083;28;70255;-41
2022/08/10 10:28:45;;;;;;;14.10;7.07;;;;;;;33.09;62.67;100379.56;5055798;28;66242;-41
2022/08/10 10:31:49;;;;;;;12.18;6.95;;;;;;;32.97;63.19;100387.78;5061888;28;69423;-40
2022/08/10 10:34:35;;;;;;;9.73;6.88;;;;;;;32.89;63.69;100383.56;5062676;28;65223;-40
2022/08/10 10:37:09;;;;;;;7.50;6.47;;;;;;;32.78;63.83;100389.91;5062459;28;69827;-41
2022/08/10 10:39:43;;;;;;;7.32;6.45;;;;;;;32.77;63.79;100390.97;5062182;28;66819;-40
2022/08/10 10:42:29;;;;;;;8.13;5.97;;;;;;;32.72;63.77;100388.16;5063873;28;69757;-40
2022/08/10 10:45:38;;;;;;;11.25;5.60;;;;;;;32.44;64.11;100375.41;5075654;28;65858;-41
2022/08/10 10:48:38;;;;;;;7.97;6.00;;;;;;;32.59;64.03;100411.00;5079207;28;69964;-40
2022/08/10 10:51:20;;;;;;;10.45;6.07;;;;;;;32.61;64.25;100408.88;5060261;28;65559;-40
2022/08/10 10:53:58;;;;;;;8.57;5.90;;;;;;;32.59;64.23;100404.75;5068359;28;70174;-39
2022/08/10 10:56:36;;;;;;;8.93;6.07;;;;;;;32.52;64.53;100404.09;5071514;28;65584;-40
2022/08/10 10:59:46;;;;;;;8.02;6.47;;;;;;;32.47;64.79;100413.78;5069434;28;69532;-41
2022/08/10 11:02:37;;;;;;;10.95;6.05;;;;;;;32.46;65.17;100414.88;5061903;28;66363;-41
2022/08/10 11:05:30;;;;;;;6.97;6.32;;;;;;;32.45;65.29;100424.03;5069600;28;70160;-40
2022/08/10 11:08:09;;;;;;;7.43;5.97;;;;;;;32.52;65.35;100420.41;5070977;28;66516;-39
2022/08/10 11:10:49;;;;;;;7.45;5.97;;;;;;;32.43;66.89;100412.59;5049992;28;70490;-41
2022/08/10 11:13:50;;;;;;;8.77;6.63;;;;;;;32.44;67.01;100425.09;5063680;28;66456;-40
2022/08/10 11:17:06;;;;;;;9.95;6.50;;;;;;;31.99;66.79;100368.03;5068085;28;70468;-40
2022/08/10 11:20:14;;;;;;;19.00;6.70;;;;;;;32.29;67.54;100422.09;5060326;28;65885;-41
2022/08/10 11:22:53;;;;;;;9.68;6.07;;;;;;;32.40;67.75;100434.81;5065449;28;69543;-40
2022/08/10 11:25:29;;;;;;;10.10;6.65;;;;;;;32.40;68.03;100440.22;5069292;28;66012;-40
2022/08/10 11:28:16;;;;;;;10.25;6.20;;;;;;;32.36;67.92;100443.66;5067360;28;69729;-41
2022/08/10 11:31:26;;;;;;;10.90;6.90;;;;;;;32.30;68.26;100445.44;5056442;28;66211;-39
2022/08/10 11:34:06;;;;;;;13.00;6.05;;;;;;;32.39;68.36;100454.03;5024286;28;70216;-39
2022/08/10 11:37:19;;;;;;;10.27;5.97;;;;;;;31.56;68.55;100325.88;5052116;28;66271;-40
2022/08/10 11:40:20;;;;;;;16.50;6.68;;;;;;;32.40;67.91;100432.09;5052197;28;69889;-41
2022/08/10 11:43:14;;;;;;;15.18;6.18;;;;;;;32.55;66.45;100447.06;5037115;28;66149;-41
2022/08/10 11:46:03;;;;;;;9.43;4.95;;;;;;;32.79;64.77;100459.47;5058429;28;70401;-42
2022/08/10 11:48:49;;;;;;;10.93;5.88;;;;;;;32.57;64.13;100424.03;5060194;28;66288;-39
2022/08/10 11:52:27;;;;;;;12.38;6.30;;;;;;;32.78;64.08;100474.09;5061342;28;69697;-44
2022/08/10 11:55:09;;;;;;;14.10;5.60;;;;;;;32.26;63.70;100362.84;5030896;28;66029;-41
2022/08/10 11:57:45;;;;;;;10.30;5.57;;;;;;;33.00;63.47;100476.16;5061301;28;70408;-42
2022/08/10 12:00:32;;;;;;;10.93;5.93;;;;;;;33.00;63.02;100484.31;5070655;28;65752;-43
2022/08/10 12:03:07;;;;;;;9.93;5.50;;;;;;;33.02;63.28;100482.19;5059726;28;69772;-41
2022/08/10 12:05:41;;;;;;;12.45;5.90;;;;;;;32.72;63.07;100437.88;5069240;28;66911;-41
2022/08/10 12:08:27;;;;;;;10.43;5.97;;;;;;;33.02;62.99;100488.44;5071212;28;69651;-42
2022/08/10 12:11:25;;;;;;;12.43;5.07;;;;;;;33.02;62.65;100495.78;5057911;28;66482;-41
2022/08/10 12:14:16;;;;;;;8.45;5.35;;;;;;;32.96;63.00;100516.56;5052924;28;70669;-42
2022/08/10 12:17:01;;;;;;;8.85;5.25;;;;;;;32.63;62.88;100457.53;5050062;28;66200;-41
2022/08/10 12:19:45;;;;;;;7.07;5.30;;;;;;;33.01;62.77;100516.66;5053557;28;70457;-41
2022/08/10 12:22:57;;;;;;;11.90;5.20;;;;;;;33.07;62.88;100531.16;5062317;28;65536;-41
2022/08/10 12:25:37;;;;;;;6.53;5.43;;;;;;;33.06;62.45;100537.69;5061201;28;69580;-41
2022/08/10 12:28:55;;;;;;;8.38;5.80;;;;;;;32.96;62.92;100540.16;5053676;28;65701;-42
2022/08/10 12:31:34;;;;;;;9.02;5.43;;;;;;;33.06;62.55;100545.84;5048529;28;70231;-42
2022/08/10 12:34:31;;;;;;;14.73;5.95;;;;;;;32.92;62.82;100540.66;5061565;28;66628;-40
2022/08/10 12:37:16;;;;;;;7.00;5.78;;;;;;;33.04;62.56;100547.97;5038410;28;70311;-42
2022/08/10 12:40:26;;;;;;;7.03;6.20;;;;;;;33.04;62.83;100553.41;5061366;28;66828;-41
2022/08/10 12:43:14;;;;;;;6.93;6.20;;;;;;;33.01;62.97;100559.31;5056787;28;69438;-42
2022/08/10 12:46:41;;;;;;;12.38;6.05;;;;;;;32.89;63.09;100562.88;5046187;28;65962;-43